Time;durP1;ratioP1;P1;durP2;ratioP2;P2;SDS_P1;SDS_P2;PMS_P1;PMS_P2;Temp;Humidity;BMP_temperature;BMP_pressure;BME280_temperature;BME280_humidity;BME280_pressure;Samples;Min_cycle;Max_cycle;Signal;HPM_P1;HPM_P2
2022/01/04 00:01:03;;;;;;;3.07;1.60;;;;;;;10.23;100.00;99271.38;5022274;28;20187;-51
2022/01/04 00:03:28;;;;;;;2.20;1.37;;;;;;;10.22;100.00;99267.97;5014266;28;20196;-51
2022/01/04 00:05:54;;;;;;;1.70;1.10;;;;;;;10.20;100.00;99274.06;5014741;28;20236;-51
2022/01/04 00:08:20;;;;;;;2.37;1.60;;;;;;;10.16;100.00;99255.19;5015525;28;20208;-51
2022/01/04 00:10:46;;;;;;;2.47;1.30;;;;;;;10.16;100.00;99255.19;5014467;28;20200;-51
2022/01/04 00:13:24;;;;;;;1.87;1.40;;;;;;;10.15;100.00;99253.47;5010739;28;20196;-50
2022/01/04 00:15:54;;;;;;;1.77;1.53;;;;;;;10.15;100.00;99252.63;5010743;28;20452;-50
2022/01/04 00:18:20;;;;;;;2.67;1.70;;;;;;;10.12;100.00;99243.22;5013521;28;20575;-50
2022/01/04 00:20:47;;;;;;;2.07;1.50;;;;;;;10.12;100.00;99237.19;5010318;28;20194;-51
2022/01/04 00:23:12;;;;;;;2.73;1.63;;;;;;;10.10;100.00;99237.25;5015055;28;20216;-51
2022/01/04 00:25:38;;;;;;;2.30;1.43;;;;;;;10.11;100.00;99232.91;5016265;28;20717;-51
2022/01/04 00:28:07;;;;;;;2.60;1.70;;;;;;;10.09;100.00;99219.16;5012211;28;20215;-50
2022/01/04 00:30:36;;;;;;;2.90;2.03;;;;;;;10.06;100.00;99215.75;5016171;28;20676;-51
2022/01/04 00:33:02;;;;;;;3.47;2.47;;;;;;;10.06;100.00;99209.75;5018742;28;20210;-51
2022/01/04 00:35:27;;;;;;;2.87;2.50;;;;;;;10.05;100.00;99196.00;5015456;28;20758;-51
2022/01/04 00:37:53;;;;;;;3.07;2.43;;;;;;;10.06;100.00;99191.66;5016315;28;20215;-51
2022/01/04 00:40:18;;;;;;;2.90;2.03;;;;;;;10.04;100.00;99194.31;5017101;28;20286;-50
2022/01/04 00:42:43;;;;;;;3.20;2.00;;;;;;;10.03;100.00;99196.91;5018891;28;20230;-51
2022/01/04 00:45:09;;;;;;;2.40;2.00;;;;;;;10.04;100.00;99188.25;5021682;28;20224;-51
2022/01/04 00:50:28;;;;;;;2.90;1.70;;;;;;;10.00;100.00;99169.41;5011887;28;20204;-51
2022/01/04 00:52:54;;;;;;;1.93;1.40;;;;;;;10.02;100.00;99153.84;5018196;28;20203;-51
2022/01/04 00:55:20;;;;;;;3.43;1.67;;;;;;;10.02;100.00;99151.25;5016802;28;20240;-51
2022/01/04 00:57:46;;;;;;;3.20;1.30;;;;;;;10.00;100.00;99143.56;5015244;28;20677;-51
2022/01/04 01:00:14;;;;;;;2.73;1.47;;;;;;;9.99;100.00;99143.56;5020819;28;20254;-51
2022/01/04 01:02:40;;;;;;;3.23;1.30;;;;;;;9.98;100.00;99139.31;5017143;28;20184;-51
2022/01/04 01:05:06;;;;;;;4.33;1.53;;;;;;;9.97;100.00;99133.28;5013615;28;21158;-51
2022/01/04 01:07:32;;;;;;;1.40;1.20;;;;;;;9.97;100.00;99127.28;5012154;28;20211;-51
2022/01/04 01:12:25;;;;;;;1.77;1.30;;;;;;;9.95;100.00;99123.88;5016016;28;20215;-50
2022/01/04 01:14:51;;;;;;;1.93;1.40;;;;;;;9.93;100.00;99107.56;5017225;28;20273;-50
2022/01/04 01:17:16;;;;;;;1.97;1.40;;;;;;;9.93;100.00;99103.22;5018698;28;20211;-53
2022/01/04 01:19:42;;;;;;;2.07;1.27;;;;;;;9.92;100.00;99093.78;5016709;28;20633;-51
2022/01/04 01:22:07;;;;;;;3.63;1.40;;;;;;;9.91;100.00;99092.06;5015468;28;20192;-50
2022/01/04 01:24:32;;;;;;;1.63;1.27;;;;;;;9.91;100.00;99081.75;5016520;28;20192;-50
2022/01/04 01:26:58;;;;;;;3.00;1.90;;;;;;;9.88;100.00;99066.34;5020871;28;20231;-51
2022/01/04 01:29:23;;;;;;;1.87;1.40;;;;;;;9.87;100.00;99057.72;5021558;28;20286;-52
2022/01/04 01:31:48;;;;;;;1.53;1.43;;;;;;;9.86;100.00;99044.84;5016566;28;20196;-51
2022/01/04 01:34:14;;;;;;;2.70;1.60;;;;;;;9.86;100.00;99039.69;5018506;28;20219;-51
2022/01/04 01:36:39;;;;;;;1.93;1.30;;;;;;;9.83;100.00;99032.84;5016462;28;20670;-51
2022/01/04 01:39:05;;;;;;;2.40;1.40;;;;;;;9.82;100.00;99030.31;5016359;28;20184;-51
2022/01/04 01:41:30;;;;;;;2.37;1.40;;;;;;;9.81;100.00;99032.06;5019853;28;20192;-51
2022/01/04 01:43:56;;;;;;;1.57;1.43;;;;;;;9.81;100.00;99033.78;5013019;28;20640;-51
2022/01/04 01:46:21;;;;;;;1.53;1.43;;;;;;;9.79;100.00;99031.25;5018082;28;20215;-51
2022/01/04 01:48:46;;;;;;;1.47;1.33;;;;;;;9.80;100.00;99032.94;5014727;28;20238;-51
2022/01/04 01:51:16;;;;;;;1.53;1.30;;;;;;;9.80;100.00;99027.78;5021875;28;20184;-51
2022/01/04 01:53:41;;;;;;;2.77;1.60;;;;;;;9.82;100.00;99015.66;5012830;28;20606;-51
2022/01/04 01:56:07;;;;;;;2.50;1.63;;;;;;;9.83;100.00;99011.34;5019264;28;20191;-51
2022/01/04 01:58:32;;;;;;;2.57;1.50;;;;;;;9.82;100.00;99007.91;5015272;28;20216;-51
2022/01/04 02:00:58;;;;;;;2.50;1.90;;;;;;;9.83;100.00;99001.00;5019537;28;20551;-51
2022/01/04 02:03:23;;;;;;;1.50;1.33;;;;;;;9.81;100.00;98977.81;5018468;28;20226;-51
2022/01/04 02:05:49;;;;;;;2.13;1.40;;;;;;;9.82;100.00;98979.50;5013640;28;20196;-50
2022/01/04 02:08:16;;;;;;;2.10;1.70;;;;;;;9.83;100.00;98972.56;5016283;28;20214;-51
2022/01/04 02:10:44;;;;;;;2.63;1.60;;;;;;;9.82;100.00;98964.00;5023537;28;20745;-51
2022/01/04 02:13:09;;;;;;;1.83;1.60;;;;;;;9.80;100.00;98955.44;5017466;28;20195;-51
2022/01/04 02:15:35;;;;;;;2.17;1.50;;;;;;;9.81;100.00;98956.25;5017159;28;20558;-51
2022/01/04 02:18:01;;;;;;;2.57;1.60;;;;;;;9.80;100.00;98944.22;5020220;28;20240;-51
2022/01/04 02:20:26;;;;;;;1.60;1.30;;;;;;;9.80;100.00;98933.91;5019207;28;20223;-50
2022/01/04 02:22:53;;;;;;;1.37;1.10;;;;;;;9.81;100.00;98930.44;5018903;28;20676;-51
2022/01/04 02:25:18;;;;;;;2.07;1.33;;;;;;;9.81;100.00;98923.53;5023816;28;20701;-50
2022/01/04 02:27:43;;;;;;;1.53;1.40;;;;;;;9.82;100.00;98919.22;5019084;28;20925;-51
2022/01/04 02:30:12;;;;;;;1.37;1.27;;;;;;;9.83;100.00;98915.72;5013356;28;20201;-51
2022/01/04 02:32:38;;;;;;;1.77;1.40;;;;;;;9.83;100.00;98907.97;5022899;28;20215;-50
2022/01/04 02:35:04;;;;;;;1.70;1.50;;;;;;;9.84;100.00;98907.09;5024390;28;20215;-51
2022/01/04 02:37:31;;;;;;;2.10;1.50;;;;;;;9.84;100.00;98909.69;5021141;28;20216;-51
2022/01/04 02:39:56;;;;;;;1.30;1.20;;;;;;;9.83;100.00;98913.97;5016949;28;20199;-51
2022/01/04 02:42:22;;;;;;;2.30;1.57;;;;;;;9.84;100.00;98913.09;5016987;28;20192;-51
2022/01/04 02:44:48;;;;;;;1.93;1.57;;;;;;;9.84;100.00;98910.50;5021038;28;21015;-51
2022/01/04 02:47:14;;;;;;;2.17;1.60;;;;;;;9.84;100.00;98912.25;5021548;28;20207;-51
2022/01/04 02:49:40;;;;;;;2.73;1.90;;;;;;;9.83;100.00;98913.16;5022463;28;20196;-51
2022/01/04 02:52:06;;;;;;;1.90;1.43;;;;;;;9.82;100.00;98907.16;5021017;28;20191;-51
2022/01/04 02:54:31;;;;;;;1.63;1.50;;;;;;;9.83;100.00;98902.81;5021649;28;20743;-51
2022/01/04 02:56:57;;;;;;;3.07;1.63;;;;;;;9.85;100.00;98901.03;5018707;28;20212;-51
2022/01/04 02:59:22;;;;;;;1.67;1.43;;;;;;;9.84;100.00;98889.00;5024364;28;20198;-50
2022/01/04 03:01:47;;;;;;;1.87;1.60;;;;;;;9.83;100.00;98885.56;5023365;28;20195;-50
2022/01/04 03:04:13;;;;;;;2.37;1.83;;;;;;;9.83;100.00;98880.38;5020408;28;20596;-51
2022/01/04 03:06:38;;;;;;;2.10;1.90;;;;;;;9.84;100.00;98883.84;5023048;28;20261;-51
2022/01/04 03:09:05;;;;;;;2.77;1.73;;;;;;;9.85;100.00;98872.63;5016295;28;20283;-51
2022/01/04 03:11:32;;;;;;;2.47;2.00;;;;;;;9.83;100.00;98866.63;5011775;28;20184;-50
2022/01/04 03:13:57;;;;;;;2.37;1.83;;;;;;;9.84;100.00;98863.16;5021931;28;20461;-51
2022/01/04 03:16:23;;;;;;;2.83;2.03;;;;;;;9.85;100.00;98870.88;5025249;28;20230;-50
2022/01/04 03:19:05;;;;;;;2.00;1.80;;;;;;;9.85;100.00;98854.53;5029315;28;20223;-51
2022/01/04 03:21:41;;;;;;;2.80;1.67;;;;;;;9.85;100.00;98847.59;5039059;28;20600;-53
2022/01/04 03:24:08;;;;;;;2.53;2.00;;;;;;;9.82;100.00;98845.13;5018554;28;20644;-51
2022/01/04 03:26:34;;;;;;;2.23;1.70;;;;;;;9.81;100.00;98835.69;5019555;28;20196;-51
2022/01/04 03:29:01;;;;;;;2.47;1.87;;;;;;;9.81;100.00;98825.34;5014109;28;20216;-50
2022/01/04 03:31:28;;;;;;;2.10;1.70;;;;;;;9.79;100.00;98815.94;5019712;28;20192;-51
2022/01/04 03:33:53;;;;;;;2.13;1.80;;;;;;;9.81;100.00;98811.56;5021615;28;20726;-51
2022/01/04 03:36:23;;;;;;;1.90;1.43;;;;;;;9.80;100.00;98799.56;5018738;28;20307;-51
2022/01/04 03:38:49;;;;;;;1.80;1.60;;;;;;;9.78;100.00;98804.78;5017864;28;20215;-51
2022/01/04 03:41:16;;;;;;;1.87;1.70;;;;;;;9.77;100.00;98803.91;5019474;28;20714;-51
2022/01/04 03:43:42;;;;;;;2.00;1.80;;;;;;;9.80;100.00;98799.56;5025274;28;20237;-51
2022/01/04 03:46:07;;;;;;;2.47;1.80;;;;;;;9.79;100.00;98790.09;5021422;28;20203;-51
2022/01/04 03:48:34;;;;;;;2.00;1.50;;;;;;;9.80;100.00;98786.63;5019682;28;20731;-51
2022/01/04 03:51:00;;;;;;;3.17;1.87;;;;;;;9.82;100.00;98780.53;5016001;28;20197;-51
2022/01/04 03:53:26;;;;;;;2.00;1.33;;;;;;;9.82;100.00;98774.50;5023023;28;20640;-51
2022/01/04 03:55:51;;;;;;;2.07;1.57;;;;;;;9.83;100.00;98776.22;5018430;28;20263;-51
2022/01/04 03:58:19;;;;;;;2.53;1.93;;;;;;;9.82;100.00;98756.44;5014894;28;20614;-51
2022/01/04 04:00:45;;;;;;;1.70;1.60;;;;;;;9.80;100.00;98760.78;5023394;28;20197;-51
2022/01/04 04:03:10;;;;;;;3.13;1.60;;;;;;;9.80;100.00;98753.03;5024023;28;20226;-50
2022/01/04 04:05:35;;;;;;;2.53;1.57;;;;;;;9.77;100.00;98736.75;5025033;28;20214;-52
2022/01/04 04:08:01;;;;;;;1.60;1.50;;;;;;;9.79;100.00;98744.47;5022168;28;20203;-51
2022/01/04 04:10:26;;;;;;;1.50;1.40;;;;;;;9.77;100.00;98738.50;5022868;28;20204;-51
2022/01/04 04:12:51;;;;;;;1.70;1.60;;;;;;;9.77;100.00;98728.16;5019773;28;20200;-51
2022/01/04 04:15:17;;;;;;;2.37;1.73;;;;;;;9.77;100.00;98721.25;5016852;28;20388;-51
2022/01/04 04:17:45;;;;;;;1.87;1.20;;;;;;;9.80;100.00;98722.91;5018076;28;20212;-51
2022/01/04 04:20:11;;;;;;;2.93;1.70;;;;;;;9.78;100.00;98714.34;5018625;28;20377;-50
2022/01/04 04:22:36;;;;;;;2.73;1.30;;;;;;;9.79;100.00;98712.59;5023536;28;20226;-51
2022/01/04 04:25:02;;;;;;;2.03;1.40;;;;;;;9.79;100.00;98712.59;5019136;28;20188;-51
2022/01/04 04:27:28;;;;;;;1.70;1.27;;;;;;;9.80;100.00;98714.28;5011883;28;20715;-50
2022/01/04 04:29:53;;;;;;;1.40;1.10;;;;;;;9.82;100.00;98707.34;5014475;28;20278;-51
2022/01/04 04:32:18;;;;;;;2.17;1.40;;;;;;;9.81;100.00;98698.75;5022559;28;20672;-51
2022/01/04 04:34:44;;;;;;;1.20;1.10;;;;;;;9.80;100.00;98689.31;5015773;28;20255;-51
2022/01/04 04:37:09;;;;;;;1.57;1.40;;;;;;;9.82;100.00;98689.25;5013355;28;20205;-50
2022/01/04 04:39:34;;;;;;;2.67;1.40;;;;;;;9.80;100.00;98684.16;5013457;28;20192;-50
2022/01/04 04:42:01;;;;;;;1.80;1.17;;;;;;;9.80;100.00;98689.31;5011643;28;20279;-51
2022/01/04 04:44:26;;;;;;;2.83;1.20;;;;;;;9.80;100.00;98678.13;5015935;28;20188;-51
2022/01/04 04:46:52;;;;;;;1.77;1.20;;;;;;;9.80;100.00;98663.47;5012333;28;20251;-51
2022/01/04 04:49:17;;;;;;;3.50;1.63;;;;;;;9.81;100.00;98659.13;5016644;28;20198;-51
2022/01/04 04:51:42;;;;;;;1.70;1.23;;;;;;;9.80;100.00;98655.72;5023259;28;20567;-51
2022/01/04 04:54:08;;;;;;;1.67;1.20;;;;;;;9.82;100.00;98645.34;5014753;28;20247;-51
2022/01/04 04:56:38;;;;;;;1.30;1.20;;;;;;;9.82;100.00;98640.16;5019617;28;20299;-51
2022/01/04 04:59:04;;;;;;;1.43;1.30;;;;;;;9.79;100.00;98642.84;5008092;28;20198;-51
2022/01/04 05:01:29;;;;;;;1.43;1.20;;;;;;;9.79;100.00;98642.84;5016824;28;20226;-51
2022/01/04 05:03:55;;;;;;;1.37;1.10;;;;;;;9.80;100.00;98636.78;5020486;28;20223;-51
2022/01/04 05:06:20;;;;;;;1.53;1.30;;;;;;;9.79;100.00;98624.75;5014739;28;20194;-51
2022/01/04 05:08:45;;;;;;;1.73;1.30;;;;;;;9.84;100.00;98615.13;5010815;28;20222;-51
2022/01/04 05:11:11;;;;;;;1.60;1.17;;;;;;;9.85;100.00;98615.06;5021399;28;20654;-50
2022/01/04 05:13:36;;;;;;;2.30;1.20;;;;;;;9.85;100.00;98596.16;5023914;28;20281;-51
2022/01/04 05:16:01;;;;;;;1.10;0.87;;;;;;;9.83;100.00;98592.78;5013003;28;20242;-51
2022/01/04 05:18:27;;;;;;;1.40;1.27;;;;;;;9.84;100.00;98597.03;5022083;28;20814;-51
2022/01/04 05:20:52;;;;;;;2.13;1.20;;;;;;;9.83;100.00;98591.00;5019349;28;20294;-51
2022/01/04 05:23:18;;;;;;;2.30;1.20;;;;;;;9.83;100.00;98585.00;5019573;28;20214;-50
2022/01/04 05:25:43;;;;;;;1.77;1.13;;;;;;;9.87;100.00;98578.84;5023883;28;20191;-51
2022/01/04 05:28:09;;;;;;;2.10;1.17;;;;;;;9.87;100.00;98578.84;5020591;28;20216;-50
2022/01/04 05:30:34;;;;;;;1.00;1.00;;;;;;;9.89;100.00;98579.66;5026460;28;20278;-51
2022/01/04 05:32:59;;;;;;;1.97;1.10;;;;;;;9.87;100.00;98578.84;5013441;28;20648;-51
2022/01/04 05:35:26;;;;;;;2.77;1.10;;;;;;;9.89;100.00;98574.50;5010306;28;20246;-51
2022/01/04 05:37:52;;;;;;;1.57;1.10;;;;;;;9.93;100.00;98570.06;5008081;28;20208;-50
2022/01/04 05:40:17;;;;;;;2.40;1.00;;;;;;;9.94;100.00;98564.00;5013865;28;20200;-52
2022/01/04 05:42:42;;;;;;;1.50;1.10;;;;;;;9.95;100.00;98563.94;5011693;28;20254;-51
2022/01/04 05:45:08;;;;;;;1.83;1.10;;;;;;;9.94;100.00;98559.66;5009407;28;20246;-51
2022/01/04 05:47:33;;;;;;;1.37;0.90;;;;;;;9.98;100.00;98556.06;5010604;28;20373;-51
2022/01/04 05:49:59;;;;;;;1.50;1.20;;;;;;;9.98;100.00;98548.31;5011501;28;20302;-51
2022/01/04 05:52:24;;;;;;;2.17;1.33;;;;;;;9.99;100.00;98542.25;5010329;28;20197;-51
2022/01/04 05:54:51;;;;;;;2.30;1.27;;;;;;;10.02;100.00;98539.56;5011635;28;20239;-51
2022/01/04 05:57:17;;;;;;;1.20;1.10;;;;;;;10.03;100.00;98538.69;5013415;28;20211;-51
2022/01/04 05:59:43;;;;;;;1.27;1.10;;;;;;;10.04;100.00;98524.00;5012487;28;20369;-50
2022/01/04 06:02:08;;;;;;;1.57;1.17;;;;;;;10.03;100.00;98518.00;5017523;28;20192;-52
2022/01/04 06:04:33;;;;;;;2.03;1.20;;;;;;;10.04;100.00;98517.09;5016069;28;20203;-51
2022/01/04 06:06:59;;;;;;;1.77;1.30;;;;;;;10.06;100.00;98506.69;5009899;28;20703;-50
2022/01/04 06:09:28;;;;;;;1.80;1.30;;;;;;;10.06;100.00;98504.13;5012503;28;20416;-51
2022/01/04 06:17:05;;;;;;;1.50;1.40;;;;;;;10.10;100.00;98495.38;5009707;28;20218;-50
2022/01/04 06:19:30;;;;;;;1.80;1.47;;;;;;;10.11;100.00;98491.03;5018429;28;20204;-50
2022/01/04 06:21:56;;;;;;;1.80;1.37;;;;;;;10.11;100.00;98497.06;5016062;28;20181;-50
2022/01/04 06:24:21;;;;;;;1.60;1.50;;;;;;;10.12;100.00;98490.13;5013553;28;20192;-50
2022/01/04 06:26:47;;;;;;;1.90;1.40;;;;;;;10.13;100.00;98486.66;5019783;28;20215;-51
2022/01/04 06:29:14;;;;;;;1.30;1.07;;;;;;;10.14;100.00;98485.75;5022541;28;20188;-51
2022/01/04 06:31:40;;;;;;;1.50;1.40;;;;;;;10.19;100.00;98484.69;5024847;28;20199;-51
2022/01/04 06:34:06;;;;;;;1.90;1.30;;;;;;;10.20;100.00;98472.63;5026460;28;20215;-51
2022/01/04 06:36:31;;;;;;;1.93;1.40;;;;;;;10.22;100.00;98474.25;5018458;28;20275;-51
2022/01/04 06:38:57;;;;;;;2.80;1.50;;;;;;;10.23;100.00;98472.47;5012381;28;20215;-51
2022/01/04 06:41:22;;;;;;;2.37;1.40;;;;;;;10.26;100.00;98474.13;5013254;28;20200;-51
2022/01/04 06:43:48;;;;;;;1.30;1.20;;;;;;;10.27;100.00;98468.88;5015001;28;20196;-50
2022/01/04 06:46:14;;;;;;;1.50;1.30;;;;;;;10.28;100.00;98467.16;5011555;28;20252;-51
2022/01/04 06:48:40;;;;;;;2.40;1.47;;;;;;;10.28;100.00;98456.81;5016381;28;20204;-50
2022/01/04 06:51:05;;;;;;;1.33;1.23;;;;;;;10.28;100.00;98447.31;5018910;28;20236;-51
2022/01/04 06:53:31;;;;;;;1.90;1.50;;;;;;;10.30;100.00;98436.91;5017901;28;20278;-51
2022/01/04 06:55:56;;;;;;;2.07;1.33;;;;;;;10.30;100.00;98440.34;5018745;28;20184;-51
2022/01/04 06:58:22;;;;;;;1.40;1.30;;;;;;;10.30;100.00;98437.75;5011605;28;20209;-51
2022/01/04 07:00:47;;;;;;;1.50;1.40;;;;;;;10.32;100.00;98432.53;5009854;28;20731;-51
2022/01/04 07:03:13;;;;;;;1.20;1.10;;;;;;;10.32;100.00;98432.53;5015227;28;20187;-51
2022/01/04 07:05:38;;;;;;;2.57;1.40;;;;;;;10.36;100.00;98421.16;5011586;28;20279;-51
2022/01/04 07:08:04;;;;;;;1.40;1.30;;;;;;;10.37;100.00;98420.25;5015316;28;20963;-51
2022/01/04 07:10:30;;;;;;;1.70;1.20;;;;;;;10.40;100.00;98414.16;5013146;28;20215;-51
2022/01/04 07:12:55;;;;;;;1.90;1.73;;;;;;;10.40;100.00;98414.16;5017585;28;20194;-51
2022/01/04 07:15:21;;;;;;;2.27;1.27;;;;;;;10.41;100.00;98418.44;5016926;28;20221;-51
2022/01/04 07:17:46;;;;;;;1.43;1.33;;;;;;;10.43;100.00;98414.03;5008996;28;20604;-51
2022/01/04 07:20:12;;;;;;;2.03;1.50;;;;;;;10.45;100.00;98409.66;5015025;28;20195;-51
2022/01/04 07:22:37;;;;;;;2.77;1.50;;;;;;;10.49;100.00;98414.66;5016344;28;20211;-50
2022/01/04 07:25:04;;;;;;;3.87;2.30;;;;;;;10.50;100.00;98412.91;5031364;28;20650;-50
2022/01/04 07:27:30;;;;;;;2.30;1.60;;;;;;;10.51;100.00;98406.84;5017968;28;20216;-51
2022/01/04 07:29:56;;;;;;;2.73;1.40;;;;;;;10.57;100.00;98395.41;5017145;28;20191;-51
2022/01/04 07:32:22;;;;;;;1.77;1.40;;;;;;;10.57;100.00;98406.59;5017234;28;20645;-52
2022/01/04 07:34:47;;;;;;;2.20;1.13;;;;;;;10.60;100.00;98400.44;5015999;28;20221;-51
2022/01/04 07:37:13;;;;;;;2.40;1.57;;;;;;;10.60;100.00;98403.88;5013900;28;20208;-51
2022/01/04 07:39:39;;;;;;;1.30;1.20;;;;;;;10.62;100.00;98404.69;5012413;28;20628;-51
2022/01/04 07:42:04;;;;;;;1.47;1.37;;;;;;;10.63;100.00;98405.50;5016346;28;20270;-51
2022/01/04 07:44:30;;;;;;;2.00;1.40;;;;;;;10.61;100.00;98410.75;5013865;28;20267;-51
2022/01/04 07:46:55;;;;;;;1.70;1.50;;;;;;;10.63;100.00;98413.25;5016647;28;20239;-51
2022/01/04 07:49:21;;;;;;;2.13;1.40;;;;;;;10.63;100.00;98402.91;5024579;28;20222;-51
2022/01/04 07:51:46;;;;;;;2.17;1.97;;;;;;;10.63;100.00;98395.16;5016083;28;20273;-51
2022/01/04 07:54:12;;;;;;;1.73;1.30;;;;;;;10.64;100.00;98396.84;5026943;28;20239;-51
2022/01/04 07:56:38;;;;;;;1.80;1.37;;;;;;;10.65;100.00;98398.53;5016843;28;20733;-51
2022/01/04 07:59:04;;;;;;;2.03;1.40;;;;;;;10.65;100.00;98396.81;5016342;28;20181;-51
2022/01/04 08:01:30;;;;;;;1.70;1.20;;;;;;;10.66;100.00;98393.28;5016145;28;20204;-51
2022/01/04 08:03:55;;;;;;;3.40;1.60;;;;;;;10.70;100.00;98395.75;5027689;28;20612;-51
2022/01/04 08:06:21;;;;;;;1.20;1.07;;;;;;;10.71;100.00;98397.44;5021618;28;20219;-51
2022/01/04 08:08:46;;;;;;;1.97;1.40;;;;;;;10.72;100.00;98383.59;5026425;28;20210;-51
2022/01/04 08:11:12;;;;;;;2.27;1.40;;;;;;;10.73;100.00;98399.09;5025894;28;20211;-51
2022/01/04 08:13:37;;;;;;;1.67;1.20;;;;;;;10.74;100.00;98389.56;5027575;28;20188;-50
2022/01/04 08:16:03;;;;;;;2.43;1.30;;;;;;;10.76;100.00;98383.41;5027146;28;20191;-51
2022/01/04 08:18:30;;;;;;;1.70;1.20;;;;;;;10.78;100.00;98380.78;5022556;28;20339;-51
2022/01/04 08:20:58;;;;;;;1.57;1.10;;;;;;;10.79;100.00;98379.88;5015672;28;20280;-51
2022/01/04 08:23:24;;;;;;;2.47;1.33;;;;;;;10.82;100.00;98374.56;5013084;28;20509;-51
2022/01/04 08:25:50;;;;;;;1.33;1.23;;;;;;;10.83;100.00;98365.88;5014584;28;20272;-50
2022/01/04 08:28:16;;;;;;;1.17;1.00;;;;;;;10.84;100.00;98352.03;5013795;28;20243;-51
2022/01/04 08:30:43;;;;;;;1.30;1.10;;;;;;;10.86;100.00;98354.59;5023378;28;20199;-51
2022/01/04 08:33:09;;;;;;;1.87;1.17;;;;;;;10.84;100.00;98336.53;5016047;28;20196;-51
2022/01/04 08:35:34;;;;;;;1.97;1.30;;;;;;;10.88;100.00;98330.31;5019561;28;20679;-51
2022/01/04 08:38:00;;;;;;;3.27;1.37;;;;;;;10.90;100.00;98338.00;5006087;28;20220;-51
2022/01/04 08:40:25;;;;;;;1.47;1.20;;;;;;;10.92;100.00;98336.19;5020516;28;20636;-51
2022/01/04 08:42:51;;;;;;;1.77;1.23;;;;;;;10.91;100.00;98335.38;5017059;28;20188;-51
2022/01/04 08:45:17;;;;;;;1.33;0.90;;;;;;;10.94;100.00;98336.97;5028868;28;20396;-50
2022/01/04 08:47:44;;;;;;;2.03;1.40;;;;;;;10.93;100.00;98333.56;5021414;28;20216;-50
2022/01/04 08:50:11;;;;;;;3.13;1.40;;;;;;;10.95;100.00;98339.53;5015197;28;20672;-51
2022/01/04 08:52:37;;;;;;;2.20;1.40;;;;;;;10.97;100.00;98335.09;5010233;28;20211;-51
2022/01/04 08:55:03;;;;;;;1.37;1.20;;;;;;;10.98;100.00;98334.19;5011779;28;20215;-51
2022/01/04 08:57:29;;;;;;;2.93;1.53;;;;;;;11.01;100.00;98332.41;5010565;28;20219;-51
2022/01/04 08:59:55;;;;;;;2.40;1.17;;;;;;;11.01;100.00;98319.44;5009841;28;20199;-51
2022/01/04 09:02:22;;;;;;;1.90;1.30;;;;;;;11.03;100.00;98315.06;5013522;28;20316;-51
2022/01/04 09:04:47;;;;;;;2.50;1.10;;;;;;;11.04;100.00;98327.09;5008649;28;20190;-51
2022/01/04 09:07:13;;;;;;;1.50;1.17;;;;;;;11.05;100.00;98314.06;5013634;28;20211;-51
2022/01/04 09:09:39;;;;;;;1.67;1.37;;;;;;;11.06;100.00;98310.56;5011761;28;20188;-51
2022/01/04 09:12:05;;;;;;;2.20;1.20;;;;;;;11.08;100.00;98313.13;5023507;28;20210;-51
2022/01/04 09:14:43;;;;;;;2.00;1.20;;;;;;;11.06;100.00;98310.56;5014419;28;20216;-52
2022/01/04 09:19:54;;;;;;;1.60;1.30;;;;;;;11.08;100.00;98318.28;5015383;28;20599;-51
2022/01/04 09:22:20;;;;;;;1.90;1.23;;;;;;;11.07;100.00;98304.50;5014770;28;20201;-50
2022/01/04 09:24:45;;;;;;;2.03;1.33;;;;;;;11.07;100.00;98307.09;5015561;28;20188;-51
2022/01/04 09:27:11;;;;;;;1.83;1.40;;;;;;;11.09;100.00;98304.44;5018060;28;20207;-51
2022/01/04 09:29:36;;;;;;;1.43;1.20;;;;;;;11.08;100.00;98307.94;5014755;28;20890;-51
2022/01/04 09:32:04;;;;;;;2.13;1.40;;;;;;;11.08;100.00;98326.06;5022238;28;20191;-51
2022/01/04 09:34:29;;;;;;;1.77;1.40;;;;;;;11.07;100.00;98325.19;5021878;28;20238;-51
2022/01/04 09:36:55;;;;;;;1.30;1.20;;;;;;;11.08;100.00;98326.88;5014236;28;20753;-51
2022/01/04 09:39:23;;;;;;;2.17;1.10;;;;;;;11.12;100.00;98330.19;5011867;28;20203;-51
2022/01/04 09:41:51;;;;;;;2.00;1.40;;;;;;;11.13;100.00;98316.34;5023504;28;20207;-51
2022/01/04 09:44:16;;;;;;;1.30;1.10;;;;;;;11.16;100.00;98323.16;5019680;28;20656;-51
2022/01/04 09:46:42;;;;;;;2.00;1.30;;;;;;;11.18;100.00;98316.16;5024889;28;20246;-51
2022/01/04 09:49:10;;;;;;;3.50;1.63;;;;;;;11.15;100.00;98314.53;5021168;28;20192;-51
2022/01/04 09:51:38;;;;;;;2.10;1.20;;;;;;;11.16;100.00;98300.66;5023050;28;20198;-50
2022/01/04 09:54:03;;;;;;;1.57;1.23;;;;;;;11.18;100.00;98300.63;5017554;28;20216;-51
2022/01/04 09:56:29;;;;;;;2.83;1.30;;;;;;;11.21;100.00;98300.47;5017542;28;20200;-51
2022/01/04 09:58:54;;;;;;;2.93;1.67;;;;;;;11.21;100.00;98293.56;5022253;28;20239;-51
2022/01/04 10:01:32;;;;;;;1.93;1.37;;;;;;;11.24;100.00;98297.75;5016078;28;20282;-51
2022/01/04 10:03:58;;;;;;;2.73;1.33;;;;;;;11.25;100.00;98299.44;5019795;28;20739;-51
2022/01/04 10:06:23;;;;;;;2.53;1.40;;;;;;;11.26;100.00;98298.53;5022775;28;20205;-51
2022/01/04 10:08:49;;;;;;;1.70;1.27;;;;;;;11.27;100.00;98303.63;5015812;28;20599;-51
2022/01/04 10:11:14;;;;;;;2.43;1.30;;;;;;;11.28;100.00;98296.72;5011679;28;20278;-51
2022/01/04 10:13:39;;;;;;;1.80;1.30;;;;;;;11.31;100.00;98287.97;5012063;28;20200;-51
2022/01/04 10:16:15;;;;;;;1.30;1.20;;;;;;;11.36;100.00;98288.59;5012498;28;20515;-51
2022/01/04 10:18:46;;;;;;;2.13;1.53;;;;;;;11.38;100.00;98279.03;5013307;28;20594;-51
2022/01/04 10:21:14;;;;;;;2.27;1.60;;;;;;;11.43;100.00;98274.47;5010723;28;20188;-51
2022/01/04 10:23:55;;;;;;;1.77;1.40;;;;;;;11.44;100.00;98276.16;5009269;28;20192;-51
2022/01/04 10:26:39;;;;;;;2.83;1.73;;;;;;;11.45;100.00;98264.88;5017032;28;20253;-51
2022/01/04 10:29:22;;;;;;;2.43;1.40;;;;;;;11.47;100.00;98264.81;5022013;28;20183;-50
2022/01/04 10:31:47;;;;;;;1.30;1.20;;;;;;;11.47;100.00;98265.66;5020527;28;20188;-51
2022/01/04 10:34:13;;;;;;;1.50;1.40;;;;;;;11.47;100.00;98270.00;5013316;28;20720;-51
2022/01/04 10:36:39;;;;;;;1.57;1.47;;;;;;;11.47;100.00;98270.84;5020343;28;20187;-50
2022/01/04 10:39:08;;;;;;;3.03;1.70;;;;;;;11.46;100.00;98270.91;5018276;28;20267;-52
2022/01/04 10:41:36;;;;;;;1.80;1.33;;;;;;;11.46;100.00;98260.56;5014536;28;20199;-52
2022/01/04 10:44:09;;;;;;;3.87;1.50;;;;;;;11.45;100.00;98272.66;5018480;28;20247;-51
2022/01/04 10:46:44;;;;;;;2.80;1.53;;;;;;;11.46;100.00;98273.50;5018542;28;20182;-50
2022/01/04 10:49:41;;;;;;;4.07;2.03;;;;;;;11.41;100.00;98279.72;5017185;28;20185;-50
2022/01/04 10:52:08;;;;;;;1.60;1.47;;;;;;;11.38;100.00;98292.81;5009565;28;20206;-50
2022/01/04 10:54:34;;;;;;;2.43;1.60;;;;;;;11.37;100.00;98293.72;5010774;28;20752;-53
2022/01/04 10:57:07;;;;;;;1.40;1.30;;;;;;;11.37;100.00;98293.72;5015926;28;20195;-50
2022/01/04 10:59:33;;;;;;;4.27;1.50;;;;;;;11.36;100.00;98304.97;5018629;28;20196;-51
2022/01/04 11:01:59;;;;;;;1.70;1.60;;;;;;;11.35;100.00;98313.66;5013427;28;20255;-51
2022/01/04 11:04:24;;;;;;;1.90;1.60;;;;;;;11.34;100.00;98300.78;5011980;28;20187;-51
2022/01/04 11:06:57;;;;;;;2.00;1.60;;;;;;;11.35;100.00;98297.28;5012965;28;20225;-51
2022/01/04 11:09:23;;;;;;;4.17;1.70;;;;;;;11.35;100.00;98299.88;5014441;28;20211;-51
2022/01/04 11:11:48;;;;;;;3.37;1.80;;;;;;;11.35;100.00;98294.69;5009184;28;20673;-51
2022/01/04 11:14:14;;;;;;;1.97;1.70;;;;;;;11.34;100.00;98291.28;5013510;28;20224;-51
2022/01/04 11:16:41;;;;;;;1.60;1.43;;;;;;;11.32;100.00;98285.31;5016145;28;20574;-51
2022/01/04 11:19:07;;;;;;;2.10;1.63;;;;;;;11.30;100.00;98289.72;5013355;28;20192;-51
2022/01/04 11:21:36;;;;;;;2.60;1.87;;;;;;;11.29;100.00;98282.88;5015713;28;20207;-51
2022/01/04 11:24:04;;;;;;;2.30;1.77;;;;;;;11.24;100.00;98280.47;5018135;28;20621;-51
2022/01/04 11:26:30;;;;;;;2.50;1.80;;;;;;;11.26;100.00;98276.09;5017479;28;20250;-51
2022/01/04 11:28:57;;;;;;;2.47;1.90;;;;;;;11.24;100.00;98270.13;5020276;28;20228;-51
2022/01/04 11:31:33;;;;;;;2.43;1.87;;;;;;;11.24;100.00;98264.94;5020477;28;20274;-51
2022/01/04 11:34:01;;;;;;;1.93;1.47;;;;;;;11.23;100.00;98262.41;5018943;28;20722;-51
2022/01/04 11:36:28;;;;;;;4.30;2.30;;;;;;;11.22;100.00;98268.50;5020659;28;20188;-50
2022/01/04 11:38:54;;;;;;;2.27;1.70;;;;;;;11.19;100.00;98272.06;5021051;28;20262;-54